Time;durP1;ratioP1;P1;durP2;ratioP2;P2;SDS_P1;SDS_P2;PMS_P1;PMS_P2;Temp;Humidity;BMP_temperature;BMP_pressure;BME280_temperature;BME280_humidity;BME280_pressure;Samples;Min_cycle;Max_cycle;Signal;HPM_P1;HPM_P2
2023/12/21 00:01:39;;;;;;;17.88;2.60;;;9.10;99.90;;;;;;5071676;28;20036;-60
2023/12/21 00:04:06;;;;;;;17.55;2.63;;;9.10;99.90;;;;;;5071725;28;20076;-61
2023/12/21 00:06:32;;;;;;;17.90;2.78;;;9.10;99.90;;;;;;5071474;28;20044;-60
2023/12/21 00:08:58;;;;;;;20.67;4.20;;;8.90;99.90;;;;;;5071473;28;20044;-60
2023/12/21 00:11:23;;;;;;;18.33;2.80;;;9.10;99.90;;;;;;5071835;28;20044;-60
2023/12/21 00:13:49;;;;;;;15.13;2.38;;;8.90;99.90;;;;;;5071780;28;20041;-60
2023/12/21 00:16:16;;;;;;;12.20;2.15;;;9.10;99.90;;;;;;5071446;28;20044;-59
2023/12/21 00:18:42;;;;;;;20.40;2.90;;;9.00;99.90;;;;;;5071515;28;20052;-60
2023/12/21 00:21:08;;;;;;;17.80;2.58;;;9.10;99.90;;;;;;5071631;28;20041;-60
2023/12/21 00:23:34;;;;;;;18.77;3.00;;;9.10;99.90;;;;;;5070116;28;20507;-61
2023/12/21 00:26:00;;;;;;;17.70;2.67;;;9.00;99.90;;;;;;5074230;28;20495;-60
2023/12/21 00:28:26;;;;;;;20.13;3.70;;;9.10;99.90;;;;;;5075480;28;20093;-61
2023/12/21 00:30:51;;;;;;;13.82;3.53;;;9.10;99.90;;;;;;5075395;28;20097;-60
2023/12/21 00:33:17;;;;;;;20.20;3.78;;;9.00;99.90;;;;;;5075352;28;20040;-60
2023/12/21 00:35:43;;;;;;;14.90;3.20;;;9.00;99.90;;;;;;5075065;28;20047;-60
2023/12/21 00:38:08;;;;;;;14.07;2.92;;;9.20;99.90;;;;;;5074949;28;20051;-60
2023/12/21 00:40:34;;;;;;;15.73;2.92;;;9.10;99.90;;;;;;5075165;28;20120;-60
2023/12/21 00:43:00;;;;;;;24.00;3.15;;;9.00;99.90;;;;;;5074570;28;20063;-60
2023/12/21 00:45:26;;;;;;;16.42;2.80;;;9.10;99.90;;;;;;5075094;28;20407;-60
2023/12/21 00:47:52;;;;;;;19.45;3.33;;;9.20;99.90;;;;;;5074981;28;20029;-60
2023/12/21 00:50:18;;;;;;;16.63;2.90;;;9.10;99.90;;;;;;5074716;28;20480;-60
2023/12/21 00:52:43;;;;;;;17.42;3.35;;;9.20;99.90;;;;;;5074709;28;20397;-60
2023/12/21 00:55:09;;;;;;;18.80;3.20;;;9.00;99.90;;;;;;5056619;28;20040;-60
2023/12/21 00:57:35;;;;;;;16.20;3.10;;;9.30;99.90;;;;;;5075039;28;20040;-60
2023/12/21 01:00:01;;;;;;;19.38;3.83;;;9.20;99.90;;;;;;5074672;28;20439;-60
2023/12/21 01:02:27;;;;;;;12.38;2.85;;;9.10;99.90;;;;;;5074573;28;20642;-61
2023/12/21 01:04:52;;;;;;;17.02;3.30;;;9.20;99.90;;;;;;5074720;28;20036;-60
2023/12/21 01:07:18;;;;;;;14.55;2.80;;;9.20;99.90;;;;;;5074334;28;20072;-60
2023/12/21 01:09:44;;;;;;;15.95;3.20;;;9.10;99.90;;;;;;5074583;28;20385;-60
2023/12/21 01:12:09;;;;;;;15.50;3.63;;;9.10;99.90;;;;;;5074434;28;20025;-60
2023/12/21 01:14:36;;;;;;;12.93;3.05;;;9.10;99.90;;;;;;5074293;28;20040;-60
2023/12/21 01:17:02;;;;;;;18.60;3.70;;;9.00;99.90;;;;;;5072932;28;20404;-61
2023/12/21 01:19:27;;;;;;;19.08;3.60;;;9.20;99.90;;;;;;5055979;28;20056;-60
2023/12/21 01:21:53;;;;;;;18.13;3.05;;;9.20;99.90;;;;;;5073793;28;20079;-60
2023/12/21 01:24:19;;;;;;;16.35;2.50;;;9.00;99.90;;;;;;5072708;28;20033;-60
2023/12/21 01:26:44;;;;;;;18.08;3.17;;;9.10;99.90;;;;;;5073802;28;20366;-60
2023/12/21 01:29:10;;;;;;;19.00;3.97;;;9.00;99.90;;;;;;5073833;28;20166;-61
2023/12/21 01:31:36;;;;;;;24.40;3.03;;;9.10;99.90;;;;;;5073773;28;20043;-60
2023/12/21 01:34:02;;;;;;;14.70;2.47;;;9.20;99.90;;;;;;5072256;28;20052;-60
2023/12/21 01:36:28;;;;;;;17.80;3.53;;;9.00;99.90;;;;;;5073607;28;20042;-60
2023/12/21 01:38:54;;;;;;;18.60;2.70;;;9.10;99.90;;;;;;5055843;28;20044;-60
2023/12/21 01:41:20;;;;;;;19.73;2.85;;;9.00;99.90;;;;;;5073641;28;20115;-60
2023/12/21 01:43:46;;;;;;;16.20;4.43;;;9.10;99.90;;;;;;5073305;28;20053;-60
2023/12/21 01:46:12;;;;;;;9.52;2.65;;;9.10;99.90;;;;;;5073625;28;20052;-61
2023/12/21 01:48:39;;;;;;;15.95;3.60;;;8.80;99.90;;;;;;5073550;28;20124;-60
2023/12/21 01:51:05;;;;;;;14.43;2.78;;;9.00;99.90;;;;;;5073717;28;20033;-60
2023/12/21 01:53:32;;;;;;;15.90;2.92;;;9.00;99.90;;;;;;5073833;28;20043;-60
2023/12/21 01:55:59;;;;;;;16.40;2.75;;;9.10;99.90;;;;;;5073526;28;20036;-62
2023/12/21 01:58:25;;;;;;;19.13;2.97;;;9.00;99.90;;;;;;5073522;28;20446;-58
2023/12/21 02:00:52;;;;;;;18.90;2.85;;;9.00;99.90;;;;;;5072221;28;20053;-60
2023/12/21 02:03:19;;;;;;;14.02;2.42;;;9.10;99.90;;;;;;5073175;28;20048;-60
2023/12/21 02:05:45;;;;;;;14.18;2.58;;;8.90;99.90;;;;;;5073752;28;20791;-61
2023/12/21 02:08:12;;;;;;;13.10;3.00;;;8.80;99.90;;;;;;5073211;28;20119;-60
2023/12/21 02:10:39;;;;;;;16.70;2.72;;;8.60;99.90;;;;;;5072430;28;20040;-60
2023/12/21 02:13:05;;;;;;;15.93;2.85;;;8.60;99.90;;;;;;5073479;28;20041;-60
2023/12/21 02:15:31;;;;;;;22.33;4.43;;;8.60;99.90;;;;;;5073271;28;20044;-60
2023/12/21 02:17:59;;;;;;;20.40;3.53;;;9.00;99.90;;;;;;5073206;28;20095;-60
2023/12/21 02:20:25;;;;;;;14.73;3.00;;;9.00;99.90;;;;;;5073230;28;20074;-60
2023/12/21 02:22:53;;;;;;;16.30;3.33;;;9.00;99.90;;;;;;5073065;28;20072;-60
2023/12/21 02:25:19;;;;;;;13.23;3.83;;;8.70;99.90;;;;;;5072952;28;20040;-60
2023/12/21 02:27:49;;;;;;;13.40;2.80;;;9.00;99.90;;;;;;5072861;28;20101;-60
2023/12/21 02:30:15;;;;;;;17.27;3.58;;;8.50;99.90;;;;;;5072861;28;20033;-60
2023/12/21 02:32:40;;;;;;;13.30;2.78;;;8.60;99.90;;;;;;5072956;28;20029;-60
2023/12/21 02:35:06;;;;;;;14.55;3.63;;;8.60;99.90;;;;;;5073054;28;20485;-60
2023/12/21 02:37:32;;;;;;;14.02;2.95;;;8.50;99.90;;;;;;5072881;28;20044;-60
2023/12/21 02:39:58;;;;;;;15.20;3.30;;;9.10;99.90;;;;;;5072852;28;20432;-60
2023/12/21 02:42:23;;;;;;;19.42;3.28;;;8.50;99.90;;;;;;5072368;28;20064;-60
2023/12/21 02:44:49;;;;;;;16.63;2.58;;;8.70;99.90;;;;;;5072372;28;20048;-60
2023/12/21 02:47:15;;;;;;;24.20;3.60;;;8.60;99.90;;;;;;5071806;28;20082;-60
2023/12/21 02:49:40;;;;;;;18.00;4.65;;;8.50;99.90;;;;;;5072786;28;20032;-61
2023/12/21 02:52:06;;;;;;;15.27;4.13;;;9.00;99.90;;;;;;5072255;28;20047;-60
2023/12/21 02:54:32;;;;;;;15.50;4.20;;;8.50;99.90;;;;;;5070933;28;20129;-60
2023/12/21 02:56:57;;;;;;;11.93;3.70;;;9.10;99.90;;;;;;5072422;28;20043;-61
2023/12/21 02:59:23;;;;;;;14.40;2.83;;;8.80;99.90;;;;;;5072221;28;20040;-60
2023/12/21 03:01:49;;;;;;;11.40;2.83;;;8.90;99.90;;;;;;5071022;28;20498;-60
2023/12/21 03:04:15;;;;;;;15.20;3.83;;;9.00;99.90;;;;;;5072304;28;20051;-61
2023/12/21 03:06:41;;;;;;;14.48;3.72;;;8.40;99.90;;;;;;5072291;28;20127;-60
2023/12/21 03:09:07;;;;;;;17.10;3.13;;;8.50;99.90;;;;;;5072118;28;20040;-60
2023/12/21 03:11:32;;;;;;;17.13;3.40;;;8.30;99.90;;;;;;5072290;28;20086;-60
2023/12/21 03:13:58;;;;;;;15.20;3.88;;;8.70;99.90;;;;;;5072045;28;20067;-60
2023/12/21 03:16:24;;;;;;;18.85;3.67;;;9.10;99.90;;;;;;5072367;28;20052;-61
2023/12/21 03:18:49;;;;;;;13.70;3.47;;;9.20;99.90;;;;;;5072120;28;20036;-60
2023/12/21 03:21:15;;;;;;;15.18;2.80;;;8.40;99.90;;;;;;5071941;28;20041;-60
2023/12/21 03:23:41;;;;;;;19.42;3.50;;;8.90;99.90;;;;;;5071852;28;20039;-60
2023/12/21 03:26:08;;;;;;;15.52;3.42;;;9.00;99.90;;;;;;5071983;28;20083;-59
2023/12/21 03:28:34;;;;;;;12.25;3.00;;;8.60;99.90;;;;;;5070921;28;20115;-60
2023/12/21 03:31:01;;;;;;;16.25;3.60;;;8.50;99.90;;;;;;5072073;28;20597;-60
2023/12/21 03:33:26;;;;;;;11.65;3.25;;;9.00;99.90;;;;;;5072115;28;20087;-60
2023/12/21 03:35:52;;;;;;;15.90;4.47;;;8.30;99.90;;;;;;5070662;28;20072;-60
2023/12/21 03:38:17;;;;;;;20.55;4.35;;;8.30;99.90;;;;;;5071905;28;20059;-60
2023/12/21 03:40:43;;;;;;;12.38;3.60;;;8.40;99.90;;;;;;5071818;28;20044;-60
2023/12/21 03:43:09;;;;;;;13.90;3.30;;;8.40;99.90;;;;;;5071433;28;20109;-61
2023/12/21 03:45:39;;;;;;;12.00;3.15;;;8.90;99.90;;;;;;5070350;28;20124;-61
2023/12/21 03:48:10;;;;;;;16.42;3.42;;;8.30;99.90;;;;;;5071784;28;20150;-61
2023/12/21 03:50:36;;;;;;;19.75;4.05;;;8.30;99.90;;;;;;5070724;28;20041;-60
2023/12/21 03:53:02;;;;;;;18.23;4.40;;;9.20;99.90;;;;;;5072023;28;20072;-60
2023/12/21 03:55:28;;;;;;;16.10;3.50;;;8.30;99.90;;;;;;5071580;28;20048;-60
2023/12/21 03:57:53;;;;;;;13.43;3.15;;;8.40;99.90;;;;;;5071878;28;20036;-61
2023/12/21 04:00:19;;;;;;;11.93;3.00;;;9.20;99.90;;;;;;5075781;28;20052;-60
2023/12/21 04:02:48;;;;;;;14.93;3.83;;;8.70;99.90;;;;;;5075917;28;20046;-61
2023/12/21 04:05:14;;;;;;;15.35;3.03;;;8.40;99.90;;;;;;5075780;28;20124;-61
2023/12/21 04:07:39;;;;;;;13.77;2.80;;;9.00;99.90;;;;;;5075684;28;20131;-60
2023/12/21 04:10:06;;;;;;;18.38;3.75;;;8.20;99.90;;;;;;5075552;28;20032;-60
2023/12/21 04:12:31;;;;;;;14.65;3.03;;;8.20;99.90;;;;;;5075719;28;20033;-60
2023/12/21 04:14:57;;;;;;;17.10;3.63;;;9.10;99.90;;;;;;5075675;28;20098;-60
2023/12/21 04:17:23;;;;;;;15.90;3.97;;;9.10;99.90;;;;;;5075674;28;20107;-60
2023/12/21 04:19:48;;;;;;;17.77;3.58;;;9.10;99.90;;;;;;5075581;28;20091;-60
2023/12/21 04:22:14;;;;;;;17.77;3.63;;;8.60;99.90;;;;;;5075448;28;20037;-60
2023/12/21 04:24:41;;;;;;;12.98;3.53;;;8.20;99.90;;;;;;5075268;28;20484;-60
2023/12/21 04:27:06;;;;;;;15.35;3.92;;;8.80;99.90;;;;;;5075431;28;20044;-61
2023/12/21 04:29:32;;;;;;;16.10;3.72;;;9.20;99.90;;;;;;5075070;28;20036;-60
2023/12/21 04:31:57;;;;;;;12.85;3.17;;;8.20;99.90;;;;;;5073835;28;20045;-60
2023/12/21 04:34:23;;;;;;;16.83;3.67;;;8.90;99.90;;;;;;5075173;28;20040;-60
2023/12/21 04:36:49;;;;;;;16.25;3.13;;;9.20;99.90;;;;;;5075385;28;20044;-60
2023/12/21 04:39:14;;;;;;;12.52;3.65;;;8.60;99.90;;;;;;5075266;28;20048;-60
2023/12/21 04:41:40;;;;;;;19.70;4.53;;;8.80;99.90;;;;;;5074986;28;20063;-60
2023/12/21 04:44:07;;;;;;;13.95;2.95;;;9.20;99.90;;;;;;5074714;28;20493;-60
2023/12/21 04:46:33;;;;;;;13.73;3.58;;;9.10;99.90;;;;;;5075036;28;20045;-61
2023/12/21 04:48:59;;;;;;;16.02;3.75;;;9.20;99.90;;;;;;5074815;28;20113;-60
2023/12/21 04:51:25;;;;;;;17.15;3.45;;;8.70;99.90;;;;;;5074919;28;20036;-60
2023/12/21 04:53:50;;;;;;;14.57;3.28;;;8.30;99.90;;;;;;5074934;28;20472;-60
2023/12/21 04:56:16;;;;;;;12.07;2.80;;;8.80;99.90;;;;;;5074072;28;20504;-60
2023/12/21 04:58:42;;;;;;;18.30;3.67;;;8.10;99.90;;;;;;5074587;28;20115;-60
2023/12/21 05:01:08;;;;;;;9.23;3.13;;;8.30;99.90;;;;;;5074603;28;20507;-59
2023/12/21 05:03:34;;;;;;;20.08;3.38;;;9.10;99.90;;;;;;5074371;28;20504;-60
2023/12/21 05:06:01;;;;;;;13.23;4.05;;;9.20;99.90;;;;;;5074345;28;20036;-60
2023/12/21 05:08:26;;;;;;;15.45;3.13;;;9.10;99.90;;;;;;5074645;28;20040;-60
2023/12/21 05:10:52;;;;;;;14.30;3.67;;;8.30;99.90;;;;;;5073714;28;20090;-60
2023/12/21 05:13:18;;;;;;;16.30;3.58;;;8.60;99.90;;;;;;5074462;28;20110;-60
2023/12/21 05:15:44;;;;;;;14.23;3.28;;;8.20;99.90;;;;;;5074544;28;20045;-60
2023/12/21 05:18:10;;;;;;;12.02;3.60;;;9.20;99.90;;;;;;5074393;28;20040;-60
2023/12/21 05:20:35;;;;;;;16.50;3.95;;;8.20;99.90;;;;;;5074100;28;20072;-60
2023/12/21 05:23:01;;;;;;;11.40;3.53;;;8.20;99.90;;;;;;5073227;28;20044;-60
2023/12/21 05:25:27;;;;;;;15.70;3.33;;;8.50;99.90;;;;;;5074270;28;20041;-60
2023/12/21 05:27:53;;;;;;;17.70;3.38;;;9.20;99.90;;;;;;5074068;28;20428;-60
2023/12/21 05:30:19;;;;;;;17.33;4.20;;;9.20;99.90;;;;;;5074029;28;20094;-60
2023/12/21 05:32:45;;;;;;;12.85;2.95;;;8.20;99.90;;;;;;5074333;28;20068;-60
2023/12/21 05:35:12;;;;;;;17.45;2.92;;;8.70;99.90;;;;;;5073969;28;20040;-60
2023/12/21 05:37:38;;;;;;;15.82;2.90;;;8.40;99.90;;;;;;5074112;28;20047;-59
2023/12/21 05:40:06;;;;;;;16.00;2.80;;;9.20;99.90;;;;;;5073716;28;20397;-59
2023/12/21 05:42:31;;;;;;;14.88;3.60;;;9.20;99.90;;;;;;5073629;28;20156;-60
2023/12/21 05:44:58;;;;;;;15.88;2.67;;;8.70;99.90;;;;;;5072377;28;20131;-60
2023/12/21 05:47:23;;;;;;;17.75;3.75;;;9.00;99.90;;;;;;5073726;28;20040;-60
2023/12/21 05:49:49;;;;;;;14.77;3.03;;;7.20;99.90;;;;;;5073704;28;20052;-60
2023/12/21 05:52:15;;;;;;;16.42;3.67;;;7.70;99.90;;;;;;5073582;28;20060;-60
2023/12/21 05:54:41;;;;;;;18.13;4.80;;;7.20;99.90;;;;;;5073488;28;20048;-60
2023/12/21 05:57:10;;;;;;;14.85;4.65;;;9.90;99.90;;;;;;5073676;28;20238;-60
2023/12/21 05:59:37;;;;;;;20.10;3.30;;;7.30;99.90;;;;;;5073652;28;20144;-60
2023/12/21 06:02:03;;;;;;;12.10;2.78;;;7.60;99.90;;;;;;5073605;28;20455;-60
2023/12/21 06:04:29;;;;;;;14.93;2.92;;;7.90;99.90;;;;;;5072052;28;20037;-60
2023/12/21 06:06:54;;;;;;;17.10;3.75;;;9.50;99.90;;;;;;5073262;28;20506;-60
2023/12/21 06:09:20;;;;;;;18.38;4.20;;;9.80;99.90;;;;;;5072875;28;20037;-61
2023/12/21 06:11:46;;;;;;;14.88;3.67;;;8.20;99.90;;;;;;5072793;28;20388;-60
2023/12/21 06:14:12;;;;;;;15.95;3.50;;;7.60;99.90;;;;;;5072963;28;20354;-60
2023/12/21 06:16:37;;;;;;;16.80;3.50;;;7.50;99.90;;;;;;5072750;28;20434;-60
2023/12/21 06:19:09;;;;;;;17.08;3.20;;;10.10;99.90;;;;;;5072889;28;20094;-60
2023/12/21 06:21:39;;;;;;;16.33;3.50;;;9.90;99.90;;;;;;5071162;28;20079;-60
2023/12/21 06:24:06;;;;;;;12.90;3.72;;;9.50;99.90;;;;;;5072329;28;20045;-60
2023/12/21 06:26:38;;;;;;;13.93;3.20;;;8.00;99.90;;;;;;5073097;28;20120;-60
2023/12/21 06:29:04;;;;;;;;;;;7.90;99.90;;;;;;5073264;28;20045;-60
2023/12/21 06:31:29;;;;;;;18.88;3.83;;;9.70;99.90;;;;;;5072603;28;20260;-60
2023/12/21 06:33:55;;;;;;;14.32;3.40;;;9.70;99.90;;;;;;5072768;28;20388;-60
2023/12/21 06:36:20;;;;;;;11.57;3.10;;;9.50;99.90;;;;;;5072579;28;20473;-60
2023/12/21 06:38:46;;;;;;;11.40;2.97;;;9.90;99.90;;;;;;5072574;28;20143;-59
2023/12/21 06:41:15;;;;;;;16.42;2.85;;;8.60;99.90;;;;;;5072449;28;20640;-60
2023/12/21 06:43:40;;;;;;;11.25;2.60;;;8.80;99.90;;;;;;5072039;28;20044;-58
2023/12/21 06:46:13;;;;;;;10.88;2.90;;;8.60;99.90;;;;;;5054087;28;20055;-60
2023/12/21 06:48:39;;;;;;;11.13;2.55;;;8.80;99.90;;;;;;5072097;28;20119;-60
2023/12/21 06:51:05;;;;;;;9.68;2.38;;;8.90;99.90;;;;;;5071913;28;20392;-60
2023/12/21 06:53:31;;;;;;;12.07;2.47;;;8.40;99.90;;;;;;5072009;28;20032;-60
2023/12/21 06:55:56;;;;;;;5.45;1.83;;;9.40;99.90;;;;;;5070578;28;20094;-60
2023/12/21 06:58:24;;;;;;;13.80;2.75;;;9.30;99.90;;;;;;5071719;28;20055;-60
2023/12/21 07:00:50;;;;;;;12.00;2.50;;;8.80;99.90;;;;;;5071751;28;20080;-60
2023/12/21 07:03:15;;;;;;;11.32;2.67;;;9.40;99.90;;;;;;5071845;28;20090;-60
2023/12/21 07:05:41;;;;;;;15.60;3.53;;;9.50;99.90;;;;;;5071967;28;20040;-60
2023/12/21 07:08:07;;;;;;;8.48;2.65;;;8.20;99.90;;;;;;5071729;28;20041;-60
2023/12/21 07:10:32;;;;;;;9.73;2.38;;;9.60;99.90;;;;;;5071851;28;20050;-61
2023/12/21 07:12:58;;;;;;;11.88;3.45;;;8.00;99.90;;;;;;5071890;28;20063;-60
2023/12/21 07:15:24;;;;;;;7.45;1.98;;;9.30;99.90;;;;;;5072162;28;20045;-60
2023/12/21 07:17:49;;;;;;;11.13;2.67;;;9.70;99.90;;;;;;5070897;28;20040;-61
2023/12/21 07:20:15;;;;;;;8.95;2.42;;;8.90;99.90;;;;;;5071904;28;20040;-60
2023/12/21 07:22:41;;;;;;;12.30;2.63;;;8.00;99.90;;;;;;5072279;28;20625;-61
2023/12/21 07:25:07;;;;;;;9.45;2.28;;;9.00;99.90;;;;;;5072146;28;20041;-60
2023/12/21 07:27:33;;;;;;;10.57;2.08;;;9.50;99.90;;;;;;5071849;28;20500;-60
2023/12/21 07:29:59;;;;;;;8.57;2.47;;;9.70;99.90;;;;;;5072151;28;20041;-60
2023/12/21 07:32:24;;;;;;;6.50;2.05;;;9.40;99.90;;;;;;5072210;28;20438;-60
2023/12/21 07:34:50;;;;;;;13.55;2.33;;;9.10;99.90;;;;;;5071346;28;20159;-60
2023/12/21 07:37:16;;;;;;;11.85;2.38;;;9.50;99.90;;;;;;5072305;28;20055;-60
2023/12/21 07:39:43;;;;;;;9.38;2.15;;;8.60;99.90;;;;;;5072239;28;20032;-60
2023/12/21 07:42:09;;;;;;;8.82;2.42;;;8.50;99.90;;;;;;5071914;28;20049;-60
2023/12/21 07:44:35;;;;;;;16.10;2.60;;;8.60;99.90;;;;;;5071729;28;20051;-60
2023/12/21 07:47:02;;;;;;;13.02;2.75;;;9.50;99.90;;;;;;5071860;28;20041;-60
2023/12/21 07:49:28;;;;;;;10.02;2.67;;;9.40;99.90;;;;;;5071920;28;20045;-60
2023/12/21 07:51:54;;;;;;;14.40;2.70;;;9.60;99.90;;;;;;5071972;28;20072;-59
2023/12/21 07:54:19;;;;;;;13.13;2.38;;;9.50;99.90;;;;;;5054108;28;20124;-60
2023/12/21 07:56:45;;;;;;;16.88;2.90;;;9.50;99.90;;;;;;5071962;28;20043;-60
2023/12/21 07:59:11;;;;;;;17.58;3.13;;;8.70;99.90;;;;;;5071925;28;20032;-60
2023/12/21 08:01:37;;;;;;;11.88;2.47;;;9.60;99.90;;;;;;5071720;28;20059;-60
2023/12/21 08:04:02;;;;;;;9.32;3.00;;;8.70;99.90;;;;;;5071544;28;20105;-60
2023/12/21 08:06:28;;;;;;;14.77;3.30;;;8.30;99.90;;;;;;5071947;28;20040;-60
2023/12/21 08:08:54;;;;;;;20.00;3.63;;;8.30;99.90;;;;;;5071651;28;20037;-60
2023/12/21 08:11:23;;;;;;;25.48;4.85;;;10.40;99.90;;;;;;5070293;28;20032;-61
2023/12/21 08:13:50;;;;;;;20.73;3.90;;;11.00;99.90;;;;;;5070270;28;20119;-61
2023/12/21 08:16:17;;;;;;;23.13;4.03;;;8.40;99.90;;;;;;5071516;28;20033;-48
2023/12/21 08:18:43;;;;;;;17.33;3.42;;;10.80;99.90;;;;;;5071790;28;20041;-48
2023/12/21 08:21:10;;;;;;;17.08;3.85;;;9.10;99.90;;;;;;5071403;28;20045;-46
2023/12/21 08:23:35;;;;;;;22.13;3.70;;;8.90;99.90;;;;;;5071605;28;20090;-49
2023/12/21 08:26:03;;;;;;;24.02;4.63;;;8.70;99.90;;;;;;5071284;28;20041;-48
2023/12/21 08:28:30;;;;;;;21.50;3.50;;;8.80;99.90;;;;;;5071267;28;20036;-47
2023/12/21 08:30:56;;;;;;;14.73;3.05;;;11.00;99.90;;;;;;5071257;28;20477;-46
2023/12/21 08:33:22;;;;;;;18.25;3.20;;;9.80;99.90;;;;;;5071586;28;20056;-45
2023/12/21 08:35:48;;;;;;;21.15;4.00;;;8.40;99.90;;;;;;5071127;28;20037;-45
2023/12/21 08:38:13;;;;;;;19.80;3.83;;;8.40;99.90;;;;;;5071190;28;20085;-44
2023/12/21 08:40:39;;;;;;;19.83;5.78;;;8.50;99.90;;;;;;5071753;28;20238;-45
2023/12/21 08:43:05;;;;;;;23.65;4.40;;;9.50;99.90;;;;;;5071152;28;20052;-45
2023/12/21 08:45:32;;;;;;;18.80;3.15;;;11.10;99.90;;;;;;5071572;28;20400;-44
2023/12/21 08:47:57;;;;;;;21.13;3.33;;;11.00;99.90;;;;;;5074778;28;20145;-45
2023/12/21 08:50:24;;;;;;;20.23;3.60;;;10.90;99.90;;;;;;5074865;28;20115;-46
2023/12/21 08:52:50;;;;;;;19.52;4.32;;;10.10;99.90;;;;;;5075025;28;20044;-46
2023/12/21 08:55:16;;;;;;;17.50;3.17;;;9.10;99.90;;;;;;5074577;28;20036;-44
2023/12/21 08:57:42;;;;;;;20.17;3.60;;;8.50;99.90;;;;;;5073389;28;20124;-46
2023/12/21 09:00:12;;;;;;;17.92;3.90;;;8.80;99.90;;;;;;5074642;28;20036;-45
2023/12/21 09:02:39;;;;;;;14.32;3.35;;;11.50;99.90;;;;;;5074865;28;20040;-46
2023/12/21 09:05:05;;;;;;;19.13;4.13;;;11.40;99.90;;;;;;5074558;28;20402;-46
2023/12/21 09:07:31;;;;;;;17.23;3.75;;;8.70;99.90;;;;;;5074445;28;20481;-45
2023/12/21 09:09:57;;;;;;;14.40;3.22;;;11.40;99.90;;;;;;5074459;28;20051;-46
2023/12/21 09:12:23;;;;;;;22.10;3.90;;;9.10;99.90;;;;;;5073232;28;20029;-45
2023/12/21 09:14:48;;;;;;;17.95;2.88;;;11.20;99.90;;;;;;5074628;28;20047;-46
2023/12/21 09:17:14;;;;;;;18.58;3.38;;;11.50;99.90;;;;;;5074574;28;20397;-47
2023/12/21 09:19:41;;;;;;;20.15;4.20;;;11.30;99.90;;;;;;5056420;28;20110;-46
2023/12/21 09:22:08;;;;;;;18.77;4.03;;;11.40;99.90;;;;;;5074243;28;20462;-47
2023/12/21 09:24:33;;;;;;;25.15;3.63;;;11.20;99.90;;;;;;5074185;28;20040;-49
2023/12/21 09:26:59;;;;;;;14.93;3.42;;;9.80;99.90;;;;;;5074216;28;20036;-49
2023/12/21 09:29:25;;;;;;;15.30;2.80;;;9.50;99.90;;;;;;5074351;28;20032;-47
2023/12/21 09:31:50;;;;;;;19.73;3.20;;;9.30;99.90;;;;;;5074284;28;20044;-47
2023/12/21 09:34:18;;;;;;;19.05;3.30;;;11.30;99.90;;;;;;5074360;28;20098;-49
2023/12/21 09:36:43;;;;;;;18.00;3.08;;;9.10;99.90;;;;;;5072694;28;20048;-47
2023/12/21 09:39:12;;;;;;;14.32;3.35;;;9.40;99.90;;;;;;5074243;28;20123;-45
2023/12/21 09:41:38;;;;;;;16.55;3.15;;;9.30;99.90;;;;;;5073914;28;20404;-48
2023/12/21 09:44:05;;;;;;;21.00;3.03;;;10.70;99.90;;;;;;5073655;28;20571;-48
2023/12/21 09:46:38;;;;;;;12.50;2.40;;;10.50;99.90;;;;;;5073988;28;20046;-46
2023/12/21 09:49:06;;;;;;;16.45;2.55;;;10.60;99.90;;;;;;5073795;28;20668;-47
2023/12/21 09:51:34;;;;;;;17.92;2.67;;;10.60;99.90;;;;;;5073785;28;20040;-49
2023/12/21 09:54:01;;;;;;;14.02;2.53;;;8.80;99.90;;;;;;5073875;28;20049;-46
2023/12/21 09:56:28;;;;;;;13.00;2.50;;;9.00;99.90;;;;;;5073240;28;20072;-49
2023/12/21 09:58:55;;;;;;;16.42;2.90;;;10.20;99.90;;;;;;5073837;28;20036;-46
2023/12/21 10:01:21;;;;;;;15.25;3.15;;;9.40;99.90;;;;;;5073537;28;20048;-50
2023/12/21 10:03:47;;;;;;;14.77;2.85;;;9.70;99.90;;;;;;5072503;28;20408;-46
2023/12/21 10:06:13;;;;;;;15.05;2.80;;;9.00;99.90;;;;;;5073728;28;20090;-45
2023/12/21 10:08:39;;;;;;;13.20;2.75;;;11.40;99.90;;;;;;5072132;28;20044;-48
2023/12/21 10:11:08;;;;;;;13.27;2.95;;;9.30;99.90;;;;;;5073241;28;20033;-48
2023/12/21 10:13:35;;;;;;;15.02;2.72;;;11.60;99.90;;;;;;5073269;28;20524;-48
2023/12/21 10:16:03;;;;;;;13.65;2.42;;;11.80;99.90;;;;;;5073282;28;20043;-48
2023/12/21 10:18:29;;;;;;;14.52;3.33;;;9.40;99.90;;;;;;5073350;28;20036;-48
2023/12/21 10:20:57;;;;;;;18.70;2.47;;;9.30;99.90;;;;;;5073159;28;20173;-49
2023/12/21 10:23:25;;;;;;;15.50;2.47;;;9.30;99.90;;;;;;5072929;28;20040;-46
2023/12/21 10:25:53;;;;;;;17.10;2.83;;;9.50;99.90;;;;;;5073226;28;20040;-49
2023/12/21 10:28:23;;;;;;;15.20;2.83;;;9.10;99.90;;;;;;5072927;28;20431;-46
2023/12/21 10:30:56;;;;;;;16.55;2.38;;;10.00;99.90;;;;;;5072976;28;20041;-46
2023/12/21 10:33:22;;;;;;;12.52;3.28;;;9.10;99.90;;;;;;5072993;28;20051;-46
2023/12/21 10:35:51;;;;;;;16.63;3.72;;;10.80;99.90;;;;;;5071313;28;20123;-47
2023/12/21 10:38:18;;;;;;;14.80;2.45;;;11.70;99.90;;;;;;5072988;28;20381;-46
2023/12/21 10:40:45;;;;;;;21.42;4.03;;;9.00;99.90;;;;;;5072674;28;20048;-46
2023/12/21 10:43:14;;;;;;;19.33;2.92;;;10.70;99.90;;;;;;5071192;28;20090;-45
2023/12/21 10:45:44;;;;;;;15.18;2.28;;;9.30;99.90;;;;;;5072642;28;20376;-46
2023/12/21 10:48:13;;;;;;;15.55;2.83;;;9.40;99.90;;;;;;5072585;28;20058;-47
2023/12/21 10:50:39;;;;;;;15.55;2.88;;;10.30;99.90;;;;;;5072518;28;20044;-48
2023/12/21 10:53:05;;;;;;;19.75;3.63;;;11.30;99.90;;;;;;5072569;28;20093;-49
2023/12/21 10:55:32;;;;;;;20.75;2.92;;;9.30;99.90;;;;;;5072725;28;20090;-48
2023/12/21 10:58:00;;;;;;;16.50;3.05;;;9.90;99.90;;;;;;5072534;28;20040;-47
2023/12/21 11:00:26;;;;;;;17.52;3.55;;;9.20;99.90;;;;;;5072819;28;20105;-48
2023/12/21 11:02:52;;;;;;;18.95;4.20;;;10.30;99.90;;;;;;5072450;28;20040;-46
2023/12/21 11:05:19;;;;;;;20.33;3.38;;;11.50;99.90;;;;;;5072189;28;20044;-45
2023/12/21 11:07:57;;;;;;;22.75;4.60;;;9.00;99.90;;;;;;5072040;28;20051;-44
2023/12/21 11:10:23;;;;;;;20.05;4.22;;;9.10;99.90;;;;;;5071972;28;20105;-45
2023/12/21 11:12:50;;;;;;;21.23;3.25;;;9.40;99.90;;;;;;5072174;28;20039;-44
2023/12/21 11:15:18;;;;;;;25.70;3.75;;;11.20;99.90;;;;;;5072062;28;20056;-44
2023/12/21 11:18:09;;;;;;;14.60;2.53;;;9.40;99.90;;;;;;5072108;28;20043;-46
2023/12/21 11:20:48;;;;;;;17.48;2.72;;;9.40;99.90;;;;;;5072106;28;20055;-46
2023/12/21 11:23:14;;;;;;;18.90;2.35;;;10.10;99.90;;;;;;5072448;28;20048;-45
2023/12/21 11:25:40;;;;;;;18.00;3.38;;;10.00;99.90;;;;;;5072331;28;20052;-46
2023/12/21 11:28:08;;;;;;;18.85;3.13;;;10.10;99.90;;;;;;5070864;28;20433;-45
2023/12/21 11:30:35;;;;;;;17.65;3.20;;;10.40;99.90;;;;;;5072378;28;20037;-45
2023/12/21 11:33:09;;;;;;;20.05;3.22;;;10.00;99.90;;;;;;5072280;28;20133;-45
2023/12/21 11:35:35;;;;;;;17.50;3.42;;;10.30;99.90;;;;;;5072037;28;20044;-46
2023/12/21 11:38:05;;;;;;;16.23;2.67;;;10.80;99.90;;;;;;5072380;28;20048;-46
2023/12/21 11:40:32;;;;;;;18.40;4.22;;;11.00;99.90;;;;;;5072231;28;20059;-50
2023/12/21 11:43:00;;;;;;;21.05;4.03;;;10.00;99.90;;;;;;5071767;28;20059;-48
2023/12/21 11:45:31;;;;;;;22.67;3.90;;;11.00;99.90;;;;;;5071978;28;20045;-46
2023/12/21 11:48:06;;;;;;;20.90;3.20;;;10.10;99.90;;;;;;5071897;28;20539;-45
2023/12/21 11:50:33;;;;;;;18.90;3.67;;;10.10;99.90;;;;;;5072065;28;20033;-50
2023/12/21 11:53:06;;;;;;;20.40;3.13;;;10.80;99.90;;;;;;5071817;28;20033;-46
2023/12/21 11:55:40;;;;;;;23.98;3.70;;;10.60;99.90;;;;;;5070811;28;20048;-46
2023/12/21 11:58:21;;;;;;;22.35;4.18;;;10.50;99.90;;;;;;5072036;28;20044;-49
2023/12/21 12:00:50;;;;;;;14.57;2.93;;;10.70;99.90;;;;;;5071820;28;20709;-47
2023/12/21 12:03:16;;;;;;;22.05;3.17;;;11.10;99.90;;;;;;5071746;28;20508;-45
2023/12/21 12:05:42;;;;;;;20.15;3.67;;;10.90;99.90;;;;;;5071881;28;20041;-45
2023/12/21 12:08:08;;;;;;;23.88;4.10;;;10.90;99.90;;;;;;5070474;28;20044;-46
2023/12/21 12:10:34;;;;;;;18.45;3.60;;;10.60;99.90;;;;;;5071948;28;20052;-48
2023/12/21 12:13:01;;;;;;;20.98;3.65;;;11.10;99.90;;;;;;5071591;28;20567;-46
2023/12/21 12:15:27;;;;;;;24.75;3.78;;;10.80;99.90;;;;;;5071918;28;20040;-48
2023/12/21 12:17:54;;;;;;;21.20;4.45;;;10.80;99.90;;;;;;5071574;28;20606;-48
2023/12/21 12:20:20;;;;;;;22.77;4.13;;;10.50;99.90;;;;;;5073745;28;20037;-45
2023/12/21 12:22:45;;;;;;;22.58;4.13;;;10.50;99.90;;;;;;5075389;28;20504;-45
2023/12/21 12:25:18;;;;;;;17.70;3.17;;;10.50;99.90;;;;;;5074049;28;20043;-48
2023/12/21 12:27:44;;;;;;;20.25;4.07;;;11.10;99.90;;;;;;5074102;28;20401;-46
2023/12/21 12:30:11;;;;;;;23.92;4.68;;;10.40;99.90;;;;;;5075204;28;20097;-45
2023/12/21 12:32:37;;;;;;;22.02;4.78;;;11.00;99.90;;;;;;5074169;28;20412;-48
2023/12/21 12:35:06;;;;;;;24.15;4.43;;;10.90;99.90;;;;;;5075131;28;20052;-45
2023/12/21 12:37:32;;;;;;;21.25;4.22;;;10.40;99.90;;;;;;5075278;28;20048;-49
2023/12/21 12:39:58;;;;;;;25.80;4.65;;;10.60;99.90;;;;;;5075176;28;20036;-48
2023/12/21 12:42:24;;;;;;;19.75;3.33;;;10.90;99.90;;;;;;5075220;28;20048;-48